sensor_id;sensor_type;location;lat;lon;timestamp;P1;durP1;ratioP1;P2;durP2;ratioP2
16854;SDS011;8543;54.522;18.550;2023-06-10T00:00:10;5.70;;;3.20;;
16854;SDS011;8543;54.522;18.550;2023-06-10T00:02:39;7.10;;;2.80;;
16854;SDS011;8543;54.522;18.550;2023-06-10T00:05:05;10.00;;;3.40;;
16854;SDS011;8543;54.522;18.550;2023-06-10T00:07:32;6.90;;;2.70;;
16854;SDS011;8543;54.522;18.550;2023-06-10T00:09:58;7.30;;;2.90;;
16854;SDS011;8543;54.522;18.550;2023-06-10T00:12:24;8.90;;;3.20;;
16854;SDS011;8543;54.522;18.550;2023-06-10T00:14:49;7.60;;;2.70;;
16854;SDS011;8543;54.522;18.550;2023-06-10T00:17:16;6.40;;;2.90;;
16854;SDS011;8543;54.522;18.550;2023-06-10T00:19:42;6.10;;;2.90;;
16854;SDS011;8543;54.522;18.550;2023-06-10T00:22:08;6.70;;;2.70;;
16854;SDS011;8543;54.522;18.550;2023-06-10T00:24:35;6.10;;;3.10;;
16854;SDS011;8543;54.522;18.550;2023-06-10T00:27:01;9.00;;;3.10;;
16854;SDS011;8543;54.522;18.550;2023-06-10T00:29:26;8.40;;;3.10;;
16854;SDS011;8543;54.522;18.550;2023-06-10T00:31:51;5.70;;;2.70;;
16854;SDS011;8543;54.522;18.550;2023-06-10T00:34:22;9.00;;;2.80;;
16854;SDS011;8543;54.522;18.550;2023-06-10T00:36:47;6.60;;;2.80;;
16854;SDS011;8543;54.522;18.550;2023-06-10T00:39:13;6.50;;;3.00;;
16854;SDS011;8543;54.522;18.550;2023-06-10T00:41:38;12.10;;;3.10;;
16854;SDS011;8543;54.522;18.550;2023-06-10T00:44:04;8.20;;;3.20;;
16854;SDS011;8543;54.522;18.550;2023-06-10T00:46:30;9.20;;;2.90;;
16854;SDS011;8543;54.522;18.550;2023-06-10T00:48:57;7.00;;;3.00;;
16854;SDS011;8543;54.522;18.550;2023-06-10T00:51:22;8.30;;;2.60;;
16854;SDS011;8543;54.522;18.550;2023-06-10T00:53:48;5.40;;;2.40;;
16854;SDS011;8543;54.522;18.550;2023-06-10T00:56:13;7.30;;;2.80;;
16854;SDS011;8543;54.522;18.550;2023-06-10T00:58:40;7.20;;;2.50;;
16854;SDS011;8543;54.522;18.550;2023-06-10T01:01:05;7.20;;;2.70;;
16854;SDS011;8543;54.522;18.550;2023-06-10T01:03:31;7.90;;;2.80;;
16854;SDS011;8543;54.522;18.550;2023-06-10T01:05:59;8.10;;;2.70;;
16854;SDS011;8543;54.522;18.550;2023-06-10T01:08:31;6.60;;;2.80;;
16854;SDS011;8543;54.522;18.550;2023-06-10T01:11:02;7.50;;;2.70;;
16854;SDS011;8543;54.522;18.550;2023-06-10T01:13:30;9.90;;;2.90;;
16854;SDS011;8543;54.522;18.550;2023-06-10T01:15:56;5.80;;;2.30;;
16854;SDS011;8543;54.522;18.550;2023-06-10T01:18:22;13.70;;;3.20;;
16854;SDS011;8543;54.522;18.550;2023-06-10T01:20:48;8.10;;;3.00;;
16854;SDS011;8543;54.522;18.550;2023-06-10T01:23:14;7.30;;;2.30;;
16854;SDS011;8543;54.522;18.550;2023-06-10T01:25:45;7.70;;;2.60;;
16854;SDS011;8543;54.522;18.550;2023-06-10T01:28:20;7.40;;;2.40;;
16854;SDS011;8543;54.522;18.550;2023-06-10T01:33:43;6.70;;;2.30;;
16854;SDS011;8543;54.522;18.550;2023-06-10T01:36:12;5.90;;;2.40;;
16854;SDS011;8543;54.522;18.550;2023-06-10T01:38:42;6.40;;;2.40;;
16854;SDS011;8543;54.522;18.550;2023-06-10T01:41:09;8.20;;;2.60;;
16854;SDS011;8543;54.522;18.550;2023-06-10T01:43:37;8.10;;;2.80;;
16854;SDS011;8543;54.522;18.550;2023-06-10T01:46:03;5.90;;;2.40;;
16854;SDS011;8543;54.522;18.550;2023-06-10T01:48:29;4.70;;;2.00;;
16854;SDS011;8543;54.522;18.550;2023-06-10T01:50:55;7.10;;;2.50;;
16854;SDS011;8543;54.522;18.550;2023-06-10T01:53:23;9.80;;;2.30;;
16854;SDS011;8543;54.522;18.550;2023-06-10T01:55:49;8.50;;;2.40;;
16854;SDS011;8543;54.522;18.550;2023-06-10T01:58:14;3.80;;;2.40;;
16854;SDS011;8543;54.522;18.550;2023-06-10T02:00:40;5.90;;;2.20;;
16854;SDS011;8543;54.522;18.550;2023-06-10T02:03:05;7.00;;;2.30;;
16854;SDS011;8543;54.522;18.550;2023-06-10T02:05:31;5.50;;;2.20;;
16854;SDS011;8543;54.522;18.550;2023-06-10T02:07:57;7.60;;;2.10;;
16854;SDS011;8543;54.522;18.550;2023-06-10T02:10:22;8.20;;;2.50;;
16854;SDS011;8543;54.522;18.550;2023-06-10T02:12:48;6.30;;;2.70;;
16854;SDS011;8543;54.522;18.550;2023-06-10T02:15:14;5.90;;;2.30;;
16854;SDS011;8543;54.522;18.550;2023-06-10T02:17:39;6.60;;;2.40;;
16854;SDS011;8543;54.522;18.550;2023-06-10T02:20:05;6.20;;;2.20;;
16854;SDS011;8543;54.522;18.550;2023-06-10T02:22:36;4.30;;;2.10;;
16854;SDS011;8543;54.522;18.550;2023-06-10T02:25:01;4.10;;;2.20;;
16854;SDS011;8543;54.522;18.550;2023-06-10T02:27:27;6.80;;;2.20;;
16854;SDS011;8543;54.522;18.550;2023-06-10T02:29:52;8.90;;;2.30;;
16854;SDS011;8543;54.522;18.550;2023-06-10T02:32:17;4.20;;;1.80;;
16854;SDS011;8543;54.522;18.550;2023-06-10T02:34:43;5.90;;;1.80;;
16854;SDS011;8543;54.522;18.550;2023-06-10T02:37:09;6.60;;;1.90;;
16854;SDS011;8543;54.522;18.550;2023-06-10T02:39:34;5.40;;;2.00;;
16854;SDS011;8543;54.522;18.550;2023-06-10T02:41:59;5.70;;;1.70;;
16854;SDS011;8543;54.522;18.550;2023-06-10T02:44:25;5.00;;;2.00;;
16854;SDS011;8543;54.522;18.550;2023-06-10T02:46:50;5.40;;;2.10;;
16854;SDS011;8543;54.522;18.550;2023-06-10T02:49:16;5.00;;;1.80;;
16854;SDS011;8543;54.522;18.550;2023-06-10T02:51:41;5.40;;;2.00;;
16854;SDS011;8543;54.522;18.550;2023-06-10T02:54:07;4.90;;;2.20;;
16854;SDS011;8543;54.522;18.550;2023-06-10T02:56:32;9.30;;;2.00;;
16854;SDS011;8543;54.522;18.550;2023-06-10T02:58:58;3.40;;;1.70;;
16854;SDS011;8543;54.522;18.550;2023-06-10T03:01:23;3.40;;;1.80;;
16854;SDS011;8543;54.522;18.550;2023-06-10T03:03:49;5.30;;;2.00;;
16854;SDS011;8543;54.522;18.550;2023-06-10T03:06:15;8.00;;;3.10;;
16854;SDS011;8543;54.522;18.550;2023-06-10T03:08:41;9.80;;;2.50;;
16854;SDS011;8543;54.522;18.550;2023-06-10T03:11:06;7.10;;;1.90;;
16854;SDS011;8543;54.522;18.550;2023-06-10T03:13:32;4.60;;;2.00;;
16854;SDS011;8543;54.522;18.550;2023-06-10T03:15:57;4.30;;;2.10;;
16854;SDS011;8543;54.522;18.550;2023-06-10T03:18:26;8.80;;;2.00;;
16854;SDS011;8543;54.522;18.550;2023-06-10T03:20:52;3.90;;;1.90;;
16854;SDS011;8543;54.522;18.550;2023-06-10T03:23:18;5.00;;;2.10;;
16854;SDS011;8543;54.522;18.550;2023-06-10T03:25:44;5.20;;;1.80;;
16854;SDS011;8543;54.522;18.550;2023-06-10T03:28:10;4.50;;;2.10;;
16854;SDS011;8543;54.522;18.550;2023-06-10T03:30:35;8.80;;;2.00;;
16854;SDS011;8543;54.522;18.550;2023-06-10T03:33:01;3.70;;;1.90;;
16854;SDS011;8543;54.522;18.550;2023-06-10T03:35:26;4.10;;;2.00;;
16854;SDS011;8543;54.522;18.550;2023-06-10T03:37:51;6.30;;;2.20;;
16854;SDS011;8543;54.522;18.550;2023-06-10T03:40:17;6.50;;;2.10;;
16854;SDS011;8543;54.522;18.550;2023-06-10T03:42:42;5.20;;;2.40;;
16854;SDS011;8543;54.522;18.550;2023-06-10T03:45:09;4.90;;;2.40;;
16854;SDS011;8543;54.522;18.550;2023-06-10T03:47:35;5.30;;;2.00;;
16854;SDS011;8543;54.522;18.550;2023-06-10T03:50:02;5.90;;;2.10;;
16854;SDS011;8543;54.522;18.550;2023-06-10T03:52:28;3.70;;;2.00;;
16854;SDS011;8543;54.522;18.550;2023-06-10T03:54:54;5.20;;;2.20;;
16854;SDS011;8543;54.522;18.550;2023-06-10T03:57:19;4.90;;;1.80;;
16854;SDS011;8543;54.522;18.550;2023-06-10T03:59:45;5.40;;;2.50;;
16854;SDS011;8543;54.522;18.550;2023-06-10T04:02:10;5.50;;;2.10;;
16854;SDS011;8543;54.522;18.550;2023-06-10T04:04:36;5.30;;;1.90;;
16854;SDS011;8543;54.522;18.550;2023-06-10T04:07:02;4.20;;;2.10;;
16854;SDS011;8543;54.522;18.550;2023-06-10T04:09:29;5.10;;;2.10;;
16854;SDS011;8543;54.522;18.550;2023-06-10T04:11:54;3.40;;;1.90;;
16854;SDS011;8543;54.522;18.550;2023-06-10T04:14:19;5.50;;;2.20;;
16854;SDS011;8543;54.522;18.550;2023-06-10T04:16:45;3.30;;;1.90;;
16854;SDS011;8543;54.522;18.550;2023-06-10T04:19:10;5.70;;;2.00;;
16854;SDS011;8543;54.522;18.550;2023-06-10T04:21:36;5.00;;;2.00;;
16854;SDS011;8543;54.522;18.550;2023-06-10T04:24:01;4.20;;;2.30;;
16854;SDS011;8543;54.522;18.550;2023-06-10T04:26:27;5.20;;;1.90;;
16854;SDS011;8543;54.522;18.550;2023-06-10T04:28:52;6.00;;;2.30;;
16854;SDS011;8543;54.522;18.550;2023-06-10T04:31:18;4.80;;;1.90;;
16854;SDS011;8543;54.522;18.550;2023-06-10T04:33:44;6.50;;;2.10;;
16854;SDS011;8543;54.522;18.550;2023-06-10T04:36:10;3.40;;;2.10;;
16854;SDS011;8543;54.522;18.550;2023-06-10T04:38:35;4.80;;;2.30;;
16854;SDS011;8543;54.522;18.550;2023-06-10T04:41:01;4.80;;;2.20;;
16854;SDS011;8543;54.522;18.550;2023-06-10T04:43:26;4.00;;;1.90;;
16854;SDS011;8543;54.522;18.550;2023-06-10T04:45:53;6.40;;;2.50;;
16854;SDS011;8543;54.522;18.550;2023-06-10T04:48:19;4.60;;;2.20;;
16854;SDS011;8543;54.522;18.550;2023-06-10T04:50:44;5.50;;;2.20;;
16854;SDS011;8543;54.522;18.550;2023-06-10T04:53:10;6.40;;;2.20;;
16854;SDS011;8543;54.522;18.550;2023-06-10T04:55:35;6.30;;;2.60;;
16854;SDS011;8543;54.522;18.550;2023-06-10T04:58:01;5.00;;;2.50;;
16854;SDS011;8543;54.522;18.550;2023-06-10T05:00:27;6.80;;;2.30;;
16854;SDS011;8543;54.522;18.550;2023-06-10T05:02:52;5.10;;;2.40;;
16854;SDS011;8543;54.522;18.550;2023-06-10T05:05:18;7.50;;;2.50;;
16854;SDS011;8543;54.522;18.550;2023-06-10T05:07:44;3.00;;;2.00;;
16854;SDS011;8543;54.522;18.550;2023-06-10T05:10:09;6.80;;;2.40;;
16854;SDS011;8543;54.522;18.550;2023-06-10T05:12:35;5.30;;;2.40;;
16854;SDS011;8543;54.522;18.550;2023-06-10T05:15:00;4.50;;;2.10;;
16854;SDS011;8543;54.522;18.550;2023-06-10T05:17:26;5.50;;;2.30;;
16854;SDS011;8543;54.522;18.550;2023-06-10T05:19:52;7.00;;;2.40;;
16854;SDS011;8543;54.522;18.550;2023-06-10T05:22:18;4.70;;;2.40;;
16854;SDS011;8543;54.522;18.550;2023-06-10T05:24:43;7.40;;;2.80;;
16854;SDS011;8543;54.522;18.550;2023-06-10T05:27:09;6.60;;;2.50;;
16854;SDS011;8543;54.522;18.550;2023-06-10T05:29:35;4.30;;;2.60;;
16854;SDS011;8543;54.522;18.550;2023-06-10T05:32:01;7.30;;;2.60;;
16854;SDS011;8543;54.522;18.550;2023-06-10T05:34:29;4.90;;;2.50;;
16854;SDS011;8543;54.522;18.550;2023-06-10T05:36:54;8.20;;;2.80;;
16854;SDS011;8543;54.522;18.550;2023-06-10T05:39:20;5.30;;;2.30;;
16854;SDS011;8543;54.522;18.550;2023-06-10T05:41:45;5.10;;;2.30;;
16854;SDS011;8543;54.522;18.550;2023-06-10T05:44:11;5.40;;;2.40;;
16854;SDS011;8543;54.522;18.550;2023-06-10T05:46:36;6.70;;;2.20;;
16854;SDS011;8543;54.522;18.550;2023-06-10T05:49:02;5.20;;;2.20;;
16854;SDS011;8543;54.522;18.550;2023-06-10T05:51:28;4.30;;;2.10;;
16854;SDS011;8543;54.522;18.550;2023-06-10T05:53:54;7.30;;;2.20;;
16854;SDS011;8543;54.522;18.550;2023-06-10T05:56:19;5.80;;;2.20;;
16854;SDS011;8543;54.522;18.550;2023-06-10T05:58:47;7.70;;;2.60;;
16854;SDS011;8543;54.522;18.550;2023-06-10T06:01:13;4.50;;;2.20;;
16854;SDS011;8543;54.522;18.550;2023-06-10T06:03:38;8.60;;;2.80;;
16854;SDS011;8543;54.522;18.550;2023-06-10T06:06:04;4.90;;;2.30;;
16854;SDS011;8543;54.522;18.550;2023-06-10T06:08:29;5.80;;;2.30;;
16854;SDS011;8543;54.522;18.550;2023-06-10T06:10:55;5.70;;;2.30;;
16854;SDS011;8543;54.522;18.550;2023-06-10T06:13:20;9.00;;;2.50;;
16854;SDS011;8543;54.522;18.550;2023-06-10T06:15:46;6.00;;;2.20;;
16854;SDS011;8543;54.522;18.550;2023-06-10T06:18:11;5.80;;;2.40;;
16854;SDS011;8543;54.522;18.550;2023-06-10T06:20:36;6.30;;;2.40;;
16854;SDS011;8543;54.522;18.550;2023-06-10T06:23:02;6.40;;;2.20;;
16854;SDS011;8543;54.522;18.550;2023-06-10T06:25:27;4.20;;;2.20;;
16854;SDS011;8543;54.522;18.550;2023-06-10T06:27:53;4.50;;;2.40;;
16854;SDS011;8543;54.522;18.550;2023-06-10T06:30:18;5.60;;;2.20;;
16854;SDS011;8543;54.522;18.550;2023-06-10T06:32:44;5.60;;;2.50;;
16854;SDS011;8543;54.522;18.550;2023-06-10T06:35:10;7.00;;;2.30;;
16854;SDS011;8543;54.522;18.550;2023-06-10T06:37:35;7.80;;;2.40;;
16854;SDS011;8543;54.522;18.550;2023-06-10T06:40:01;4.90;;;2.40;;
16854;SDS011;8543;54.522;18.550;2023-06-10T06:42:26;4.70;;;2.30;;
16854;SDS011;8543;54.522;18.550;2023-06-10T06:44:52;5.50;;;2.20;;
16854;SDS011;8543;54.522;18.550;2023-06-10T06:47:17;4.00;;;2.10;;
16854;SDS011;8543;54.522;18.550;2023-06-10T06:49:45;8.10;;;2.30;;
16854;SDS011;8543;54.522;18.550;2023-06-10T06:52:11;5.10;;;2.30;;
16854;SDS011;8543;54.522;18.550;2023-06-10T06:54:36;3.90;;;2.40;;
16854;SDS011;8543;54.522;18.550;2023-06-10T06:57:02;4.00;;;2.20;;
16854;SDS011;8543;54.522;18.550;2023-06-10T06:59:28;6.40;;;2.50;;
16854;SDS011;8543;54.522;18.550;2023-06-10T07:01:53;8.80;;;2.20;;
16854;SDS011;8543;54.522;18.550;2023-06-10T07:04:21;6.60;;;2.50;;
16854;SDS011;8543;54.522;18.550;2023-06-10T07:06:47;6.10;;;2.60;;
16854;SDS011;8543;54.522;18.550;2023-06-10T07:09:13;9.90;;;3.00;;
16854;SDS011;8543;54.522;18.550;2023-06-10T07:11:39;10.30;;;2.80;;
16854;SDS011;8543;54.522;18.550;2023-06-10T07:14:04;6.00;;;2.40;;
16854;SDS011;8543;54.522;18.550;2023-06-10T07:16:30;4.10;;;2.60;;
16854;SDS011;8543;54.522;18.550;2023-06-10T07:18:55;5.70;;;2.40;;
16854;SDS011;8543;54.522;18.550;2023-06-10T07:21:21;3.80;;;2.30;;
16854;SDS011;8543;54.522;18.550;2023-06-10T07:23:48;7.50;;;2.20;;
16854;SDS011;8543;54.522;18.550;2023-06-10T07:26:14;4.10;;;2.00;;
16854;SDS011;8543;54.522;18.550;2023-06-10T07:28:43;12.50;;;2.70;;
16854;SDS011;8543;54.522;18.550;2023-06-10T07:31:08;5.30;;;2.30;;
16854;SDS011;8543;54.522;18.550;2023-06-10T07:33:34;3.70;;;2.20;;
16854;SDS011;8543;54.522;18.550;2023-06-10T07:36:00;4.70;;;2.20;;
16854;SDS011;8543;54.522;18.550;2023-06-10T07:38:25;6.20;;;2.60;;
16854;SDS011;8543;54.522;18.550;2023-06-10T07:40:51;3.90;;;2.00;;
16854;SDS011;8543;54.522;18.550;2023-06-10T07:43:17;4.40;;;2.00;;
16854;SDS011;8543;54.522;18.550;2023-06-10T07:45:43;6.30;;;2.20;;
16854;SDS011;8543;54.522;18.550;2023-06-10T07:48:08;5.10;;;2.10;;
16854;SDS011;8543;54.522;18.550;2023-06-10T07:50:34;5.40;;;2.10;;
16854;SDS011;8543;54.522;18.550;2023-06-10T07:53:00;3.80;;;1.90;;
16854;SDS011;8543;54.522;18.550;2023-06-10T07:55:25;6.70;;;2.10;;
16854;SDS011;8543;54.522;18.550;2023-06-10T07:57:51;8.30;;;2.10;;
16854;SDS011;8543;54.522;18.550;2023-06-10T08:00:17;6.50;;;2.10;;
16854;SDS011;8543;54.522;18.550;2023-06-10T08:02:43;6.00;;;2.10;;
16854;SDS011;8543;54.522;18.550;2023-06-10T08:05:09;4.70;;;2.10;;
16854;SDS011;8543;54.522;18.550;2023-06-10T08:07:35;4.80;;;1.90;;
16854;SDS011;8543;54.522;18.550;2023-06-10T08:10:00;7.20;;;2.10;;
16854;SDS011;8543;54.522;18.550;2023-06-10T08:12:26;6.30;;;2.00;;
16854;SDS011;8543;54.522;18.550;2023-06-10T08:14:51;3.10;;;1.80;;
16854;SDS011;8543;54.522;18.550;2023-06-10T08:17:17;6.40;;;2.00;;
16854;SDS011;8543;54.522;18.550;2023-06-10T08:19:42;5.90;;;1.90;;
16854;SDS011;8543;54.522;18.550;2023-06-10T08:22:08;7.20;;;2.20;;
16854;SDS011;8543;54.522;18.550;2023-06-10T08:24:34;5.90;;;2.10;;
16854;SDS011;8543;54.522;18.550;2023-06-10T08:30:22;4.20;;;1.90;;
16854;SDS011;8543;54.522;18.550;2023-06-10T08:32:48;4.30;;;2.10;;
16854;SDS011;8543;54.522;18.550;2023-06-10T08:35:13;3.80;;;1.90;;
16854;SDS011;8543;54.522;18.550;2023-06-10T08:37:39;4.90;;;2.20;;
16854;SDS011;8543;54.522;18.550;2023-06-10T08:40:04;5.90;;;2.10;;
16854;SDS011;8543;54.522;18.550;2023-06-10T08:42:43;4.70;;;2.10;;
16854;SDS011;8543;54.522;18.550;2023-06-10T08:45:15;4.50;;;2.20;;
16854;SDS011;8543;54.522;18.550;2023-06-10T08:47:44;4.60;;;1.90;;
16854;SDS011;8543;54.522;18.550;2023-06-10T08:50:11;6.00;;;2.00;;
16854;SDS011;8543;54.522;18.550;2023-06-10T08:52:37;5.90;;;2.10;;
16854;SDS011;8543;54.522;18.550;2023-06-10T08:55:03;6.80;;;2.20;;
16854;SDS011;8543;54.522;18.550;2023-06-10T08:57:33;4.20;;;2.00;;
16854;SDS011;8543;54.522;18.550;2023-06-10T08:59:58;4.80;;;2.00;;
16854;SDS011;8543;54.522;18.550;2023-06-10T09:02:24;4.60;;;2.10;;
16854;SDS011;8543;54.522;18.550;2023-06-10T09:04:50;6.20;;;1.90;;
16854;SDS011;8543;54.522;18.550;2023-06-10T09:07:16;4.60;;;1.90;;
16854;SDS011;8543;54.522;18.550;2023-06-10T09:09:42;3.00;;;1.80;;
16854;SDS011;8543;54.522;18.550;2023-06-10T09:12:08;5.30;;;2.00;;
16854;SDS011;8543;54.522;18.550;2023-06-10T09:14:34;6.20;;;2.10;;
16854;SDS011;8543;54.522;18.550;2023-06-10T09:17:00;5.00;;;1.90;;
16854;SDS011;8543;54.522;18.550;2023-06-10T09:19:25;5.00;;;2.20;;
16854;SDS011;8543;54.522;18.550;2023-06-10T09:21:52;7.50;;;2.40;;
16854;SDS011;8543;54.522;18.550;2023-06-10T09:24:17;6.70;;;2.00;;
16854;SDS011;8543;54.522;18.550;2023-06-10T09:26:43;4.70;;;1.90;;
16854;SDS011;8543;54.522;18.550;2023-06-10T09:29:10;5.80;;;2.20;;
16854;SDS011;8543;54.522;18.550;2023-06-10T09:31:37;4.40;;;2.00;;
16854;SDS011;8543;54.522;18.550;2023-06-10T09:34:05;4.90;;;2.00;;
16854;SDS011;8543;54.522;18.550;2023-06-10T09:36:32;4.60;;;2.10;;
16854;SDS011;8543;54.522;18.550;2023-06-10T09:38:58;4.30;;;2.10;;
16854;SDS011;8543;54.522;18.550;2023-06-10T09:41:31;6.30;;;1.90;;
16854;SDS011;8543;54.522;18.550;2023-06-10T09:43:58;6.00;;;2.10;;
16854;SDS011;8543;54.522;18.550;2023-06-10T09:46:23;5.10;;;1.90;;
16854;SDS011;8543;54.522;18.550;2023-06-10T09:48:49;4.00;;;1.90;;
16854;SDS011;8543;54.522;18.550;2023-06-10T09:51:14;4.70;;;2.20;;
16854;SDS011;8543;54.522;18.550;2023-06-10T09:53:42;5.00;;;2.10;;
16854;SDS011;8543;54.522;18.550;2023-06-10T09:56:07;8.80;;;2.30;;
16854;SDS011;8543;54.522;18.550;2023-06-10T09:58:34;3.80;;;2.40;;
16854;SDS011;8543;54.522;18.550;2023-06-10T10:01:04;4.40;;;2.20;;
16854;SDS011;8543;54.522;18.550;2023-06-10T10:03:46;3.80;;;2.10;;
16854;SDS011;8543;54.522;18.550;2023-06-10T10:06:12;3.10;;;1.90;;
16854;SDS011;8543;54.522;18.550;2023-06-10T10:08:40;4.70;;;2.10;;
16854;SDS011;8543;54.522;18.550;2023-06-10T10:11:06;5.90;;;2.10;;
16854;SDS011;8543;54.522;18.550;2023-06-10T10:13:33;5.30;;;2.10;;
16854;SDS011;8543;54.522;18.550;2023-06-10T10:15:59;4.10;;;2.00;;
16854;SDS011;8543;54.522;18.550;2023-06-10T10:18:29;5.70;;;2.10;;
16854;SDS011;8543;54.522;18.550;2023-06-10T10:20:55;5.20;;;2.00;;
16854;SDS011;8543;54.522;18.550;2023-06-10T10:23:25;5.10;;;2.10;;
16854;SDS011;8543;54.522;18.550;2023-06-10T10:25:55;5.50;;;2.30;;
16854;SDS011;8543;54.522;18.550;2023-06-10T10:28:23;4.40;;;2.20;;
16854;SDS011;8543;54.522;18.550;2023-06-10T10:30:52;4.70;;;2.10;;
16854;SDS011;8543;54.522;18.550;2023-06-10T10:33:19;4.00;;;2.00;;
16854;SDS011;8543;54.522;18.550;2023-06-10T10:35:47;4.10;;;2.10;;
16854;SDS011;8543;54.522;18.550;2023-06-10T10:38:12;3.90;;;2.10;;
16854;SDS011;8543;54.522;18.550;2023-06-10T10:40:39;4.70;;;2.00;;
16854;SDS011;8543;54.522;18.550;2023-06-10T10:43:04;5.00;;;2.00;;
16854;SDS011;8543;54.522;18.550;2023-06-10T10:45:30;6.40;;;2.30;;
16854;SDS011;8543;54.522;18.550;2023-06-10T10:47:59;5.30;;;2.00;;
16854;SDS011;8543;54.522;18.550;2023-06-10T10:50:37;5.40;;;2.20;;
16854;SDS011;8543;54.522;18.550;2023-06-10T10:53:03;7.10;;;2.20;;
16854;SDS011;8543;54.522;18.550;2023-06-10T10:55:30;5.20;;;1.90;;
16854;SDS011;8543;54.522;18.550;2023-06-10T10:57:59;5.10;;;2.20;;
16854;SDS011;8543;54.522;18.550;2023-06-10T11:00:32;6.80;;;2.30;;
16854;SDS011;8543;54.522;18.550;2023-06-10T11:12:56;4.50;;;1.90;;
16854;SDS011;8543;54.522;18.550;2023-06-10T11:15:28;3.60;;;2.20;;
16854;SDS011;8543;54.522;18.550;2023-06-10T11:18:40;6.10;;;2.00;;
16854;SDS011;8543;54.522;18.550;2023-06-10T11:20:53;5.70;;;2.10;;
16854;SDS011;8543;54.522;18.550;2023-06-10T11:28:41;7.20;;;2.20;;
16854;SDS011;8543;54.522;18.550;2023-06-10T11:31:19;6.50;;;2.30;;
16854;SDS011;8543;54.522;18.550;2023-06-10T11:33:46;4.90;;;2.00;;
16854;SDS011;8543;54.522;18.550;2023-06-10T11:36:12;7.00;;;2.30;;
16854;SDS011;8543;54.522;18.550;2023-06-10T11:38:38;6.90;;;2.20;;
16854;SDS011;8543;54.522;18.550;2023-06-10T11:41:04;5.00;;;2.10;;
16854;SDS011;8543;54.522;18.550;2023-06-10T11:43:29;4.10;;;2.00;;
16854;SDS011;8543;54.522;18.550;2023-06-10T11:45:55;9.30;;;2.40;;
16854;SDS011;8543;54.522;18.550;2023-06-10T11:48:21;5.60;;;2.20;;
16854;SDS011;8543;54.522;18.550;2023-06-10T11:50:46;6.10;;;2.10;;
16854;SDS011;8543;54.522;18.550;2023-06-10T11:53:12;3.80;;;2.20;;
16854;SDS011;8543;54.522;18.550;2023-06-10T11:58:17;4.10;;;2.00;;
16854;SDS011;8543;54.522;18.550;2023-06-10T12:03:13;3.60;;;2.10;;
16854;SDS011;8543;54.522;18.550;2023-06-10T12:05:39;4.50;;;2.10;;
16854;SDS011;8543;54.522;18.550;2023-06-10T12:08:08;7.60;;;1.90;;
16854;SDS011;8543;54.522;18.550;2023-06-10T12:10:42;6.80;;;2.50;;
16854;SDS011;8543;54.522;18.550;2023-06-10T12:13:08;5.20;;;2.00;;
16854;SDS011;8543;54.522;18.550;2023-06-10T12:15:34;7.90;;;1.90;;
16854;SDS011;8543;54.522;18.550;2023-06-10T12:18:00;4.30;;;2.30;;
16854;SDS011;8543;54.522;18.550;2023-06-10T12:20:27;7.60;;;2.40;;
16854;SDS011;8543;54.522;18.550;2023-06-10T12:22:53;4.40;;;2.10;;
16854;SDS011;8543;54.522;18.550;2023-06-10T12:25:24;3.90;;;2.00;;
16854;SDS011;8543;54.522;18.550;2023-06-10T12:27:53;4.20;;;2.00;;
16854;SDS011;8543;54.522;18.550;2023-06-10T12:30:21;7.20;;;2.20;;
16854;SDS011;8543;54.522;18.550;2023-06-10T12:32:47;6.20;;;2.10;;
16854;SDS011;8543;54.522;18.550;2023-06-10T12:35:17;4.70;;;2.00;;
16854;SDS011;8543;54.522;18.550;2023-06-10T12:37:54;5.30;;;2.00;;
16854;SDS011;8543;54.522;18.550;2023-06-10T12:40:40;9.30;;;2.40;;
16854;SDS011;8543;54.522;18.550;2023-06-10T12:43:06;3.30;;;2.10;;
16854;SDS011;8543;54.522;18.550;2023-06-10T12:45:32;5.00;;;2.10;;
16854;SDS011;8543;54.522;18.550;2023-06-10T12:48:11;6.20;;;2.40;;
16854;SDS011;8543;54.522;18.550;2023-06-10T12:50:41;6.40;;;2.30;;
16854;SDS011;8543;54.522;18.550;2023-06-10T12:53:09;4.70;;;2.10;;
16854;SDS011;8543;54.522;18.550;2023-06-10T12:55:36;5.10;;;2.30;;
16854;SDS011;8543;54.522;18.550;2023-06-10T12:58:02;5.40;;;2.40;;
16854;SDS011;8543;54.522;18.550;2023-06-10T13:00:28;4.40;;;2.20;;
16854;SDS011;8543;54.522;18.550;2023-06-10T13:02:59;5.70;;;2.10;;
16854;SDS011;8543;54.522;18.550;2023-06-10T13:05:26;4.60;;;2.00;;
16854;SDS011;8543;54.522;18.550;2023-06-10T13:07:52;7.40;;;2.30;;
16854;SDS011;8543;54.522;18.550;2023-06-10T13:10:17;5.10;;;2.20;;
16854;SDS011;8543;54.522;18.550;2023-06-10T13:12:44;6.00;;;2.00;;
16854;SDS011;8543;54.522;18.550;2023-06-10T13:15:09;5.10;;;2.30;;
16854;SDS011;8543;54.522;18.550;2023-06-10T13:17:35;6.20;;;2.20;;
16854;SDS011;8543;54.522;18.550;2023-06-10T13:20:04;4.90;;;2.50;;
16854;SDS011;8543;54.522;18.550;2023-06-10T13:22:30;4.40;;;2.20;;
16854;SDS011;8543;54.522;18.550;2023-06-10T13:25:01;5.20;;;2.20;;
16854;SDS011;8543;54.522;18.550;2023-06-10T13:27:28;6.10;;;2.60;;
16854;SDS011;8543;54.522;18.550;2023-06-10T13:29:53;5.80;;;2.40;;
16854;SDS011;8543;54.522;18.550;2023-06-10T13:32:19;5.60;;;2.90;;
16854;SDS011;8543;54.522;18.550;2023-06-10T13:34:44;5.60;;;2.30;;
16854;SDS011;8543;54.522;18.550;2023-06-10T13:37:10;3.70;;;1.80;;
16854;SDS011;8543;54.522;18.550;2023-06-10T13:39:37;4.90;;;2.30;;
16854;SDS011;8543;54.522;18.550;2023-06-10T13:42:03;5.50;;;2.20;;
16854;SDS011;8543;54.522;18.550;2023-06-10T13:44:29;6.60;;;2.20;;
16854;SDS011;8543;54.522;18.550;2023-06-10T13:46:58;5.20;;;2.20;;
16854;SDS011;8543;54.522;18.550;2023-06-10T13:49:24;5.00;;;2.20;;
16854;SDS011;8543;54.522;18.550;2023-06-10T13:51:49;4.90;;;2.30;;
16854;SDS011;8543;54.522;18.550;2023-06-10T13:54:14;6.30;;;2.00;;
16854;SDS011;8543;54.522;18.550;2023-06-10T13:56:40;6.20;;;2.10;;
16854;SDS011;8543;54.522;18.550;2023-06-10T13:59:06;6.00;;;2.30;;
16854;SDS011;8543;54.522;18.550;2023-06-10T14:01:31;4.90;;;1.90;;
16854;SDS011;8543;54.522;18.550;2023-06-10T14:03:57;5.60;;;1.90;;
16854;SDS011;8543;54.522;18.550;2023-06-10T14:06:22;4.60;;;2.10;;
16854;SDS011;8543;54.522;18.550;2023-06-10T14:08:48;6.30;;;2.30;;
16854;SDS011;8543;54.522;18.550;2023-06-10T14:11:13;4.90;;;2.30;;
16854;SDS011;8543;54.522;18.550;2023-06-10T14:13:39;9.10;;;2.40;;
16854;SDS011;8543;54.522;18.550;2023-06-10T14:16:05;9.60;;;2.50;;
16854;SDS011;8543;54.522;18.550;2023-06-10T14:18:30;6.70;;;2.80;;
16854;SDS011;8543;54.522;18.550;2023-06-10T14:20:56;7.60;;;2.60;;
16854;SDS011;8543;54.522;18.550;2023-06-10T14:23:21;8.50;;;2.50;;
16854;SDS011;8543;54.522;18.550;2023-06-10T14:25:47;7.30;;;2.70;;
16854;SDS011;8543;54.522;18.550;2023-06-10T14:28:12;9.90;;;2.70;;
16854;SDS011;8543;54.522;18.550;2023-06-10T14:30:38;4.70;;;2.40;;
16854;SDS011;8543;54.522;18.550;2023-06-10T14:33:03;9.30;;;3.10;;
16854;SDS011;8543;54.522;18.550;2023-06-10T14:35:29;9.20;;;2.50;;
16854;SDS011;8543;54.522;18.550;2023-06-10T14:37:54;4.90;;;2.20;;
16854;SDS011;8543;54.522;18.550;2023-06-10T14:40:20;7.60;;;2.60;;
16854;SDS011;8543;54.522;18.550;2023-06-10T14:42:49;9.10;;;2.50;;
16854;SDS011;8543;54.522;18.550;2023-06-10T14:45:15;6.10;;;2.10;;
16854;SDS011;8543;54.522;18.550;2023-06-10T14:47:40;7.40;;;2.20;;
16854;SDS011;8543;54.522;18.550;2023-06-10T14:50:06;8.90;;;2.50;;
16854;SDS011;8543;54.522;18.550;2023-06-10T14:52:32;6.00;;;2.40;;
16854;SDS011;8543;54.522;18.550;2023-06-10T14:54:57;6.80;;;2.20;;
16854;SDS011;8543;54.522;18.550;2023-06-10T14:57:22;7.80;;;2.60;;
16854;SDS011;8543;54.522;18.550;2023-06-10T14:59:48;6.80;;;2.10;;
16854;SDS011;8543;54.522;18.550;2023-06-10T15:02:13;6.20;;;2.30;;
16854;SDS011;8543;54.522;18.550;2023-06-10T15:04:39;5.90;;;2.30;;
16854;SDS011;8543;54.522;18.550;2023-06-10T15:07:04;5.80;;;2.70;;
16854;SDS011;8543;54.522;18.550;2023-06-10T15:09:30;7.20;;;2.10;;